Time;durP1;ratioP1;P1;durP2;ratioP2;P2;SDS_P1;SDS_P2;PMS_P1;PMS_P2;Temp;Humidity;BMP_temperature;BMP_pressure;BME280_temperature;BME280_humidity;BME280_pressure;Samples;Min_cycle;Max_cycle;Signal;HPM_P1;HPM_P2
2022/06/17 00:01:04;;;;;;;60.67;57.50;;;;;;;19.99;43.50;97318.34;5076840;28;20181;-68
2022/06/17 00:03:31;;;;;;;77.85;73.78;;;;;;;19.76;44.32;97322.44;5061241;28;20711;-68
2022/06/17 00:06:00;;;;;;;92.35;87.65;;;;;;;19.74;44.43;97322.69;5078678;28;20263;-68
2022/06/17 00:08:26;;;;;;;88.50;83.90;;;;;;;19.71;44.54;97331.22;5079183;28;20239;-68
2022/06/17 00:10:52;;;;;;;69.38;65.65;;;;;;;19.62;44.74;97340.81;5079050;28;20185;-67
2022/06/17 00:13:19;;;;;;;50.95;48.17;;;;;;;19.52;44.98;97336.31;5076265;28;20634;-68
2022/06/17 00:15:47;;;;;;;44.75;42.25;;;;;;;19.54;45.18;97338.72;5078499;28;20299;-68
2022/06/17 00:18:14;;;;;;;38.88;36.58;;;;;;;19.54;45.22;97336.06;5078993;28;20193;-68
2022/06/17 00:20:40;;;;;;;33.90;31.83;;;;;;;19.51;45.33;97340.03;5079026;28;20181;-68
2022/06/17 00:23:11;;;;;;;32.25;30.45;;;;;;;19.47;45.23;97339.00;5078896;28;20243;-68
2022/06/17 00:25:37;;;;;;;30.73;28.98;;;;;;;19.42;45.41;97336.31;5078625;28;20493;-68
2022/06/17 00:28:09;;;;;;;27.45;25.67;;;;;;;19.51;45.18;97333.94;5078850;28;20192;-67
2022/06/17 00:30:35;;;;;;;27.38;25.83;;;;;;;19.42;45.59;97327.53;5067554;28;20212;-68
2022/06/17 00:33:02;;;;;;;38.47;36.15;;;;;;;19.31;45.93;97326.78;5078831;28;20224;-67
2022/06/17 00:35:42;;;;;;;65.60;61.72;;;;;;;19.42;45.62;97328.34;5078708;28;20559;-67
2022/06/17 00:38:25;;;;;;;76.32;72.25;;;;;;;19.28;45.78;97329.19;5078064;28;20291;-68
2022/06/17 00:40:52;;;;;;;90.28;85.43;;;;;;;19.25;46.23;97325.19;5079032;28;20196;-68
2022/06/17 00:43:23;;;;;;;121.70;115.18;;;;;;;19.16;46.54;97332.13;5078644;28;20192;-68
2022/06/17 00:46:05;;;;;;;124.30;117.60;;;;;;;19.11;46.59;97338.22;5077873;28;20585;-68
2022/06/17 00:48:41;;;;;;;121.43;114.90;;;;;;;19.08;46.76;97344.06;5078578;28;20186;-67
2022/06/17 00:51:17;;;;;;;102.47;97.03;;;;;;;19.07;46.96;97344.34;5079015;28;20175;-68
2022/06/17 00:53:48;;;;;;;76.25;72.07;;;;;;;19.08;46.79;97340.63;5078012;28;20185;-68
2022/06/17 00:56:34;;;;;;;49.92;47.22;;;;;;;19.05;46.63;97338.50;5078410;28;20173;-68
2022/06/17 00:59:13;;;;;;;42.03;39.63;;;;;;;18.93;47.17;97325.50;5078831;28;20268;-67
2022/06/17 01:01:53;;;;;;;60.55;57.47;;;;;;;18.94;47.11;97329.75;5077739;28;20213;-68
2022/06/17 01:04:26;;;;;;;88.67;84.10;;;;;;;18.88;47.22;97338.78;5078305;28;20181;-68
2022/06/17 01:06:58;;;;;;;114.27;108.53;;;;;;;18.78;47.62;97344.06;5077919;28;20193;-68
2022/06/17 01:12:16;;;;;;;98.05;92.95;;;;;;;18.57;48.13;97327.31;5071357;28;20193;-67
2022/06/17 01:14:43;;;;;;;73.90;69.90;;;;;;;18.67;48.08;97332.63;5064416;28;20291;-67
2022/06/17 01:17:10;;;;;;;36.23;34.30;;;;;;;18.67;47.99;97339.81;5075225;28;20661;-67
2022/06/17 01:19:42;;;;;;;23.57;22.17;;;;;;;18.65;48.43;97336.63;5075523;28;20174;-67
2022/06/17 01:22:13;;;;;;;24.90;23.25;;;;;;;18.59;48.50;97333.19;5074874;28;20192;-67
2022/06/17 01:24:39;;;;;;;38.35;35.70;;;;;;;18.52;48.51;97324.63;5075056;28;20234;-66
2022/06/17 01:27:05;;;;;;;39.03;36.78;;;;;;;18.46;48.87;97317.72;5074979;28;20646;-66
2022/06/17 01:29:32;;;;;;;59.70;56.17;;;;;;;18.53;48.74;97320.13;5073896;28;20181;-67
2022/06/17 01:31:58;;;;;;;100.25;94.80;;;;;;;18.52;49.01;97316.66;5074772;28;20601;-67
2022/06/17 01:34:24;;;;;;;111.00;105.10;;;;;;;18.56;48.81;97315.09;5074682;28;20278;-66
2022/06/17 01:36:50;;;;;;;194.00;184.20;;;;;;;18.71;48.41;97317.00;5074578;28;20197;-66
2022/06/17 01:39:17;;;;;;;294.20;279.05;;;;;;;18.67;48.54;97319.34;5074829;28;20275;-66
2022/06/17 01:41:44;;;;;;;477.90;452.25;;;;;;;18.50;48.83;97318.00;5074621;28;20216;-67
2022/06/17 01:44:17;;;;;;;625.67;590.57;;;;;;;18.50;49.34;97320.66;5074579;28;20189;-67
2022/06/17 01:46:48;;;;;;;654.30;617.40;;;;;;;18.36;49.53;97323.00;5074213;28;20616;-67
2022/06/17 01:49:19;;;;;;;643.20;607.20;;;;;;;18.38;49.83;97318.25;5073837;28;20173;-66
2022/06/17 01:52:00;;;;;;;559.87;529.77;;;;;;;18.23;50.23;97318.19;5074647;28;20172;-67
2022/06/17 01:54:33;;;;;;;370.17;351.00;;;;;;;18.23;50.36;97318.19;5073976;28;20208;-67
2022/06/17 01:57:02;;;;;;;304.27;288.93;;;;;;;18.21;50.42;97318.47;5074831;28;20181;-66
2022/06/17 01:59:33;;;;;;;59.40;56.30;;;;;;;18.16;50.52;97317.69;5074640;28;20235;-67
2022/06/17 02:02:02;;;;;;;53.83;50.93;;;;;;;18.06;51.00;97317.63;5074538;28;20201;-67
2022/06/17 02:04:32;;;;;;;115.63;109.60;;;;;;;18.03;51.27;97324.25;5074061;28;20185;-67
2022/06/17 02:07:05;;;;;;;229.47;217.70;;;;;;;18.18;50.78;97337.56;5056300;28;20213;-67
2022/06/17 02:09:31;;;;;;;299.63;283.93;;;;;;;18.16;50.84;97338.91;5074351;28;20220;-66
2022/06/17 02:11:59;;;;;;;327.95;310.17;;;;;;;18.10;51.12;97331.97;5054192;28;20227;-67
2022/06/17 02:14:25;;;;;;;335.13;316.80;;;;;;;18.17;51.14;97333.31;5074103;28;20720;-67
2022/06/17 02:16:53;;;;;;;316.30;299.07;;;;;;;18.09;51.09;97330.38;5073621;28;20198;-66
2022/06/17 02:19:23;;;;;;;294.43;278.57;;;;;;;18.01;51.64;97322.91;5074003;28;20252;-67
2022/06/17 02:21:53;;;;;;;272.90;257.83;;;;;;;18.03;51.47;97324.25;5055918;28;20514;-66
2022/06/17 02:24:19;;;;;;;259.57;245.97;;;;;;;17.89;52.23;97314.41;5074100;28;20208;-67
2022/06/17 02:26:46;;;;;;;261.90;248.07;;;;;;;17.83;52.46;97310.94;5074077;28;20204;-66
2022/06/17 02:29:14;;;;;;;319.50;302.07;;;;;;;17.84;52.68;97308.00;5067103;28;20189;-67
2022/06/17 02:31:42;;;;;;;387.90;366.90;;;;;;;17.81;52.94;97313.03;5073420;28;20653;-67
2022/06/17 02:34:11;;;;;;;421.70;398.80;;;;;;;17.78;52.94;97310.88;5072933;28;20234;-67
2022/06/17 02:36:50;;;;;;;443.33;419.13;;;;;;;17.92;52.15;97300.63;5073490;28;20239;-67
2022/06/17 02:39:16;;;;;;;496.47;469.27;;;;;;;17.73;52.92;97298.41;5073140;28;20307;-66
2022/06/17 02:41:43;;;;;;;548.70;519.03;;;;;;;17.64;52.88;97305.28;5073364;28;20193;-67
2022/06/17 02:44:29;;;;;;;605.03;571.67;;;;;;;17.82;52.47;97312.78;5073340;28;20215;-66
2022/06/17 02:46:55;;;;;;;674.13;636.00;;;;;;;18.02;51.84;97316.56;5073355;28;20541;-66
2022/06/17 02:49:25;;;;;;;732.57;689.13;;;;;;;17.98;51.83;97305.69;5073167;28;20234;-66
2022/06/17 02:51:52;;;;;;;759.27;713.37;;;;;;;18.14;51.38;97312.63;5073574;28;20193;-67
2022/06/17 02:54:42;;;;;;;751.73;705.77;;;;;;;17.90;52.26;97297.41;5055493;28;20204;-67
2022/06/17 02:57:09;;;;;;;714.50;671.80;;;;;;;17.73;52.70;97293.13;5073543;28;20181;-67
2022/06/17 02:59:48;;;;;;;672.47;633.00;;;;;;;17.63;53.21;97295.72;5056688;28;20173;-67
2022/06/17 03:02:45;;;;;;;647.37;609.77;;;;;;;17.59;53.22;97293.81;5073363;28;20273;-66
2022/06/17 03:05:23;;;;;;;601.40;567.03;;;;;;;17.75;52.84;97296.31;5061751;28;20201;-66
2022/06/17 03:07:49;;;;;;;549.83;519.00;;;;;;;17.85;52.37;97301.66;5070792;28;20205;-66
2022/06/17 03:10:17;;;;;;;489.67;462.40;;;;;;;17.74;52.82;97296.56;5073228;28;20641;-66
2022/06/17 03:12:46;;;;;;;453.95;429.23;;;;;;;17.83;52.43;97302.97;5071039;28;20192;-67
2022/06/17 03:15:17;;;;;;;367.90;348.10;;;;;;;17.80;52.73;97306.13;5054958;28;20627;-66
2022/06/17 03:17:45;;;;;;;333.73;316.23;;;;;;;17.70;53.11;97322.00;5072864;28;20549;-66
2022/06/17 03:20:19;;;;;;;353.17;334.10;;;;;;;17.60;53.16;97325.41;5072279;28;20682;-67
2022/06/17 03:22:49;;;;;;;354.27;335.07;;;;;;;17.32;53.95;97326.56;5070513;28;20622;-68
2022/06/17 03:25:26;;;;;;;368.23;348.17;;;;;;;17.33;54.31;97328.13;5072890;28;20185;-67
2022/06/17 03:28:06;;;;;;;346.10;327.37;;;;;;;17.35;54.44;97328.69;5073153;28;20201;-67
2022/06/17 03:30:47;;;;;;;239.83;227.37;;;;;;;17.44;54.30;97332.44;5057285;28;20185;-66
2022/06/17 03:33:22;;;;;;;185.43;175.90;;;;;;;17.52;54.20;97336.47;5061929;28;20174;-67
2022/06/17 03:35:52;;;;;;;219.73;208.07;;;;;;;17.66;53.83;97335.00;5071829;28;20670;-66
2022/06/17 03:38:20;;;;;;;407.70;384.47;;;;;;;17.83;53.23;97334.81;5072760;28;20635;-67
2022/06/17 03:40:49;;;;;;;550.00;517.63;;;;;;;17.99;52.64;97335.66;5072327;28;20593;-67
2022/06/17 03:43:25;;;;;;;563.27;530.90;;;;;;;18.13;52.30;97339.41;5072473;28;20219;-66
2022/06/17 03:46:03;;;;;;;533.00;502.73;;;;;;;18.21;52.12;97344.22;5072304;28;20184;-67
2022/06/17 03:48:42;;;;;;;641.40;602.70;;;;;;;18.31;51.79;97338.13;5054525;28;20173;-67
2022/06/17 03:51:16;;;;;;;578.08;544.75;;;;;;;18.51;51.49;97338.16;5072664;28;20173;-67
2022/06/17 03:53:43;;;;;;;285.88;270.33;;;;;;;18.72;50.86;97347.00;5054487;28;20330;-66
2022/06/17 03:56:21;;;;;;;129.48;122.60;;;;;;;18.87;50.56;97352.31;5072228;28;20201;-67
2022/06/17 03:58:48;;;;;;;127.22;120.45;;;;;;;18.93;50.34;97354.72;5072579;28;20180;-67
2022/06/17 04:01:19;;;;;;;141.70;133.98;;;;;;;18.97;50.58;97353.13;5071885;28;20512;-67
2022/06/17 04:03:53;;;;;;;111.35;105.50;;;;;;;18.95;50.25;97359.75;5072270;28;20587;-67
2022/06/17 04:06:23;;;;;;;121.13;114.53;;;;;;;18.99;50.18;97372.25;5072524;28;20213;-67
2022/06/17 04:08:54;;;;;;;148.23;140.18;;;;;;;18.86;50.68;97362.13;5072044;28;20260;-67
2022/06/17 04:11:21;;;;;;;151.40;143.13;;;;;;;18.78;50.78;97359.22;5052634;28;20236;-67
2022/06/17 04:13:48;;;;;;;169.40;159.98;;;;;;;18.54;51.70;97369.50;5071997;28;20185;-66
2022/06/17 04:16:23;;;;;;;172.80;163.40;;;;;;;18.67;51.81;97375.13;5072391;28;20212;-67
2022/06/17 04:18:48;;;;;;;165.48;156.35;;;;;;;18.57;51.65;97374.31;5072495;28;20262;-67
2022/06/17 04:21:14;;;;;;;147.57;139.65;;;;;;;18.69;51.33;97375.66;5072119;28;20272;-67
2022/06/17 04:23:40;;;;;;;150.75;142.88;;;;;;;18.44;51.87;97377.47;5072152;28;20208;-67
2022/06/17 04:26:14;;;;;;;196.13;186.43;;;;;;;18.67;51.75;97376.97;5072287;28;20702;-67
2022/06/17 04:28:47;;;;;;;194.68;184.95;;;;;;;18.31;52.77;97388.56;5070808;28;20228;-67
2022/06/17 04:31:18;;;;;;;174.77;165.57;;;;;;;18.50;51.92;97387.81;5072162;28;20189;-67
2022/06/17 04:34:19;;;;;;;173.48;164.77;;;;;;;18.32;52.82;97392.81;5072024;28;20227;-67
2022/06/17 04:36:49;;;;;;;150.32;142.57;;;;;;;18.68;51.70;97399.81;4973723;28;20245;-67
2022/06/17 04:39:23;;;;;;;163.80;155.20;;;;;;;18.86;51.02;97396.69;5049938;28;20248;-68
2022/06/17 04:41:55;;;;;;;178.00;168.23;;;;;;;19.04;50.43;97404.13;5072176;28;20178;-67
2022/06/17 04:44:20;;;;;;;153.80;145.85;;;;;;;19.02;50.66;97400.94;5071905;28;20715;-67
2022/06/17 04:46:59;;;;;;;121.32;114.88;;;;;;;19.20;50.35;97402.28;5073382;28;20181;-67
2022/06/17 04:49:28;;;;;;;106.03;100.22;;;;;;;19.22;50.41;97408.13;5071346;28;20242;-68
2022/06/17 04:51:59;;;;;;;99.22;94.00;;;;;;;19.19;50.44;97408.66;5075489;28;20552;-67
2022/06/17 04:54:27;;;;;;;97.30;92.22;;;;;;;19.32;50.15;97409.97;5075845;28;20205;-67
2022/06/17 04:56:56;;;;;;;98.75;93.50;;;;;;;19.53;49.78;97408.91;5075177;28;20189;-68
2022/06/17 04:59:32;;;;;;;112.57;106.45;;;;;;;19.45;49.89;97412.09;5075539;28;20335;-68
2022/06/17 05:02:01;;;;;;;117.22;111.15;;;;;;;19.83;49.82;97416.06;5075631;28;20180;-67
2022/06/17 05:04:27;;;;;;;76.45;72.22;;;;;;;20.19;48.73;97419.38;5075372;28;20220;-68
2022/06/17 05:06:53;;;;;;;350.92;331.27;;;;;;;19.59;50.05;97421.16;5074896;28;20272;-67
2022/06/17 05:09:31;;;;;;;227.10;214.20;;;;;;;20.11;48.94;97414.66;5075530;28;20194;-67
2022/06/17 05:12:14;;;;;;;168.65;159.25;;;;;;;19.74;48.81;97422.97;5067182;28;20189;-68
2022/06/17 05:14:51;;;;;;;392.70;369.73;;;;;;;19.99;48.84;97419.47;5075044;28;20251;-67
2022/06/17 05:17:17;;;;;;;350.10;330.60;;;;;;;20.57;47.74;97409.91;5075432;28;20173;-67
2022/06/17 05:19:43;;;;;;;319.20;302.30;;;;;;;20.97;46.28;97412.34;5075227;28;20243;-68
2022/06/17 05:22:17;;;;;;;375.33;355.77;;;;;;;21.24;45.86;97417.22;5074394;28;20190;-67
2022/06/17 05:24:43;;;;;;;319.15;302.60;;;;;;;21.19;46.49;97417.25;5074890;28;20618;-68
2022/06/17 05:27:10;;;;;;;410.98;390.23;;;;;;;20.90;47.23;97422.50;5074636;28;20224;-68
2022/06/17 05:29:35;;;;;;;418.08;397.35;;;;;;;20.98;46.90;97424.59;5073602;28;20182;-67
2022/06/17 05:32:00;;;;;;;418.10;397.35;;;;;;;21.08;47.11;97423.72;5075206;28;20192;-67
2022/06/17 05:34:26;;;;;;;436.90;415.27;;;;;;;21.40;46.24;97420.59;5074770;28;20678;-68
2022/06/17 05:36:52;;;;;;;396.63;377.10;;;;;;;21.28;46.59;97434.28;5074695;28;20590;-67
2022/06/17 05:39:18;;;;;;;390.85;371.80;;;;;;;21.39;46.88;97432.31;5074308;28;20743;-67
2022/06/17 05:41:43;;;;;;;377.90;359.45;;;;;;;21.33;47.42;97430.78;5073981;28;20193;-67
2022/06/17 05:44:08;;;;;;;437.85;416.40;;;;;;;20.86;47.80;97432.13;5074382;28;20192;-67
2022/06/17 05:46:34;;;;;;;462.58;439.98;;;;;;;20.85;48.12;97425.19;5074242;28;20185;-67
2022/06/17 05:48:59;;;;;;;526.17;499.33;;;;;;;20.93;47.52;97437.97;5074566;28;20258;-67
2022/06/17 05:51:24;;;;;;;498.05;472.70;;;;;;;21.70;46.20;97441.63;5074646;28;20196;-68
2022/06/17 05:53:50;;;;;;;502.67;477.20;;;;;;;21.54;46.78;97454.31;5074097;28;20347;-68
2022/06/17 05:56:15;;;;;;;514.30;488.35;;;;;;;21.74;47.16;97453.31;5074047;28;20285;-68
2022/06/17 05:58:40;;;;;;;554.85;525.90;;;;;;;21.72;45.97;97454.69;5073742;28;20641;-67
2022/06/17 06:01:06;;;;;;;475.00;451.27;;;;;;;21.32;47.62;97450.50;5074151;28;20602;-67
2022/06/17 06:03:31;;;;;;;463.92;440.52;;;;;;;21.25;48.00;97456.16;5074195;28;20188;-67
2022/06/17 06:05:56;;;;;;;449.67;426.85;;;;;;;21.50;47.61;97458.63;5073995;28;20193;-67
2022/06/17 06:08:22;;;;;;;423.70;402.05;;;;;;;21.75;47.26;97457.59;5074079;28;20185;-68
2022/06/17 06:10:47;;;;;;;418.65;397.10;;;;;;;22.15;46.16;97459.09;5071998;28;20193;-68
2022/06/17 06:13:19;;;;;;;425.85;403.63;;;;;;;21.84;46.80;97463.94;5073684;28;20177;-68
2022/06/17 06:15:47;;;;;;;398.90;378.10;;;;;;;21.40;47.77;97464.03;5074043;28;20190;-69
2022/06/17 06:18:15;;;;;;;396.35;375.40;;;;;;;21.14;48.91;97460.75;5074210;28;20189;-68
2022/06/17 06:20:41;;;;;;;304.63;288.95;;;;;;;21.81;47.87;97463.69;5074386;28;20264;-68
2022/06/17 06:23:07;;;;;;;438.40;415.48;;;;;;;21.76;47.11;97456.53;5073603;28;20225;-68
2022/06/17 06:25:32;;;;;;;460.90;437.38;;;;;;;21.97;46.74;97452.59;5073942;28;20624;-68
2022/06/17 06:27:58;;;;;;;449.45;426.73;;;;;;;22.44;45.76;97453.69;5069269;28;20643;-68
2022/06/17 06:30:27;;;;;;;511.80;485.85;;;;;;;22.68;44.48;97438.38;5066906;28;20178;-67
2022/06/17 06:32:55;;;;;;;498.33;472.92;;;;;;;21.72;46.46;97446.69;5045726;28;20541;-68
2022/06/17 06:35:26;;;;;;;468.83;444.27;;;;;;;22.04;46.67;97446.13;5073752;28;20284;-68
2022/06/17 06:37:52;;;;;;;378.02;358.58;;;;;;;22.40;46.67;97444.66;5073211;28;20669;-68
2022/06/17 06:40:18;;;;;;;399.58;378.55;;;;;;;21.95;47.35;97448.63;5073580;28;20189;-68
2022/06/17 06:42:46;;;;;;;464.67;441.10;;;;;;;21.31;47.13;97448.91;5073058;28;20523;-68
2022/06/17 06:45:16;;;;;;;455.35;432.05;;;;;;;21.92;46.04;97451.81;5072775;28;20182;-67
2022/06/17 06:47:42;;;;;;;449.80;426.00;;;;;;;22.90;44.23;97451.22;5072528;28;20181;-67
2022/06/17 06:50:13;;;;;;;467.52;443.63;;;;;;;23.13;43.43;97442.31;5062091;28;20203;-67
2022/06/17 06:52:38;;;;;;;486.98;461.75;;;;;;;23.02;44.58;97442.75;5053994;28;20181;-67
2022/06/17 06:55:04;;;;;;;501.42;476.17;;;;;;;23.20;43.98;97452.66;5070719;28;20220;-67
2022/06/17 06:57:30;;;;;;;542.38;514.30;;;;;;;21.61;46.96;97453.19;5072798;28;20205;-67
2022/06/17 07:00:00;;;;;;;579.40;548.20;;;;;;;21.98;45.69;97456.06;5072284;28;20201;-67
2022/06/17 07:02:25;;;;;;;558.55;528.70;;;;;;;23.29;42.63;97460.81;5073399;28;20185;-68
2022/06/17 07:04:50;;;;;;;573.60;542.78;;;;;;;23.31;43.56;97461.31;5072545;28;20193;-68
2022/06/17 07:07:16;;;;;;;609.88;577.33;;;;;;;23.43;43.22;97467.81;5072647;28;20618;-68
2022/06/17 07:09:41;;;;;;;550.50;520.58;;;;;;;23.10;44.73;97458.94;5064756;28;20193;-67
2022/06/17 07:12:07;;;;;;;538.95;510.48;;;;;;;23.67;43.64;97480.31;5071594;28;20196;-68
2022/06/17 07:14:32;;;;;;;456.00;432.67;;;;;;;22.71;46.38;97472.59;5072877;28;20200;-68
2022/06/17 07:16:58;;;;;;;370.42;351.73;;;;;;;23.74;44.42;97480.72;5072656;28;20181;-68
2022/06/17 07:19:23;;;;;;;328.35;311.85;;;;;;;24.31;43.74;97484.78;5072790;28;20182;-68
2022/06/17 07:21:51;;;;;;;330.58;314.30;;;;;;;24.48;43.30;97489.53;5071517;28;20201;-68
2022/06/17 07:24:16;;;;;;;385.88;366.42;;;;;;;23.94;43.61;97485.72;5072181;28;20235;-68
2022/06/17 07:26:41;;;;;;;304.25;288.80;;;;;;;24.18;43.74;97489.06;5072749;28;20185;-68
2022/06/17 07:29:08;;;;;;;336.73;319.95;;;;;;;23.44;45.46;97490.81;5068323;28;20677;-67
2022/06/17 07:31:34;;;;;;;270.98;257.25;;;;;;;24.18;43.57;97486.38;5072645;28;20193;-68
2022/06/17 07:33:59;;;;;;;231.73;220.18;;;;;;;24.33;43.75;97480.72;5072243;28;20298;-68
2022/06/17 07:42:01;;;;;;;207.77;197.43;;;;;;;23.63;45.35;97474.72;5071829;28;20176;-68
2022/06/17 07:44:26;;;;;;;180.55;171.55;;;;;;;24.20;44.03;97475.34;5072616;28;20189;-68
2022/06/17 07:46:52;;;;;;;152.32;144.73;;;;;;;23.78;45.68;97469.13;5071879;28;20186;-68
2022/06/17 07:49:17;;;;;;;93.25;88.18;;;;;;;24.38;45.17;97479.81;5072598;28;20196;-68
2022/06/17 07:51:43;;;;;;;95.05;90.18;;;;;;;24.79;44.23;97475.22;5054070;28;20177;-68
2022/06/17 07:54:08;;;;;;;92.82;87.82;;;;;;;25.07;43.47;97476.00;5072838;28;20219;-68
2022/06/17 07:56:34;;;;;;;111.82;106.00;;;;;;;24.25;44.55;97477.94;5071830;28;20189;-68
2022/06/17 07:58:59;;;;;;;147.32;139.68;;;;;;;24.89;42.98;97478.81;5071027;28;20181;-68
2022/06/17 08:01:25;;;;;;;114.10;108.03;;;;;;;23.70;45.66;97477.81;5072154;28;20271;-68
2022/06/17 08:03:50;;;;;;;92.45;87.50;;;;;;;24.39;44.69;97481.41;5072298;28;20577;-67
2022/06/17 08:06:16;;;;;;;90.03;85.50;;;;;;;24.85;44.34;97484.72;5053945;28;20208;-68
2022/06/17 08:08:43;;;;;;;125.68;119.20;;;;;;;25.06;43.48;97484.31;5070393;28;20202;-69
2022/06/17 08:11:09;;;;;;;94.25;89.20;;;;;;;23.79;47.14;97483.31;5071882;28;20231;-69
2022/06/17 08:13:35;;;;;;;90.72;85.90;;;;;;;24.59;45.52;97475.63;5071279;28;20588;-69
2022/06/17 08:16:05;;;;;;;119.68;113.47;;;;;;;25.18;43.44;97488.06;5071866;28;20201;-69
2022/06/17 08:18:32;;;;;;;265.42;251.70;;;;;;;25.42;42.67;97476.22;5072205;28;20173;-68
2022/06/17 08:20:58;;;;;;;282.33;267.52;;;;;;;25.73;42.08;97473.63;5072090;28;20672;-68
2022/06/17 08:23:24;;;;;;;443.25;418.85;;;;;;;25.49;42.06;97482.78;5058215;28;20221;-69
2022/06/17 08:25:49;;;;;;;512.95;484.05;;;;;;;23.40;45.74;97481.78;5076262;28;20185;-68
2022/06/17 08:28:15;;;;;;;325.52;308.20;;;;;;;24.21;44.32;97490.34;5065174;28;20661;-68
2022/06/17 08:30:44;;;;;;;275.95;261.50;;;;;;;24.32;44.06;97487.16;5071362;28;20697;-68
2022/06/17 08:33:10;;;;;;;262.33;248.52;;;;;;;23.90;44.75;97492.75;5074854;28;20612;-68
2022/06/17 08:35:41;;;;;;;223.40;211.68;;;;;;;24.25;44.14;97494.00;5075765;28;20224;-67
2022/06/17 08:38:20;;;;;;;231.38;219.52;;;;;;;24.98;42.78;97487.72;5075684;28;20674;-67
2022/06/17 08:41:13;;;;;;;329.90;312.48;;;;;;;24.69;43.63;97483.47;5057150;28;20239;-68
2022/06/17 08:44:03;;;;;;;281.88;267.20;;;;;;;24.99;42.24;97483.94;5074825;28;20177;-68
2022/06/17 08:46:31;;;;;;;374.23;354.13;;;;;;;23.43;45.32;97483.06;5074827;28;20177;-68
2022/06/17 08:49:21;;;;;;;336.70;318.77;;;;;;;24.32;43.42;97486.38;5075673;28;20259;-67
2022/06/17 08:52:34;;;;;;;328.77;311.55;;;;;;;24.63;43.18;97492.69;5074147;28;20201;-70
2022/06/17 08:55:25;;;;;;;558.05;528.83;;;;;;;24.19;42.86;97489.81;5075372;28;20224;-67
2022/06/17 08:57:58;;;;;;;323.63;307.33;;;;;;;23.23;42.80;97478.03;5075726;28;20185;-66
2022/06/17 09:00:37;;;;;;;380.05;360.80;;;;;;;23.84;41.83;97480.53;5057707;28;20230;-67
2022/06/17 09:03:15;;;;;;;322.08;306.02;;;;;;;24.54;40.51;97477.63;5057904;28;20181;-66
2022/06/17 09:05:40;;;;;;;187.10;177.75;;;;;;;24.55;39.53;97476.53;5075168;28;20173;-66
2022/06/17 09:08:28;;;;;;;270.48;257.27;;;;;;;24.29;39.54;97479.75;5073444;28;20199;-66
2022/06/17 09:11:12;;;;;;;326.33;310.60;;;;;;;24.79;38.71;97475.22;5075224;28;20200;-66
2022/06/17 09:14:04;;;;;;;290.15;276.35;;;;;;;24.92;37.90;97480.88;5075287;28;20181;-66
2022/06/17 09:16:49;;;;;;;183.00;174.20;;;;;;;24.38;37.10;97485.19;5074961;28;20174;-65
2022/06/17 09:19:21;;;;;;;245.05;233.50;;;;;;;24.01;36.61;97489.59;5074879;28;20196;-66
2022/06/17 09:21:50;;;;;;;201.00;191.63;;;;;;;23.99;37.57;97486.41;5075060;28;20307;-65
2022/06/17 09:24:22;;;;;;;123.82;117.72;;;;;;;24.16;38.08;97485.03;5074876;28;20200;-67
2022/06/17 09:26:57;;;;;;;178.15;169.57;;;;;;;24.46;38.24;97476.47;5073183;28;20182;-67
2022/06/17 09:29:37;;;;;;;178.27;169.70;;;;;;;24.72;38.05;97476.72;5044816;28;20587;-66
2022/06/17 09:32:07;;;;;;;162.45;154.45;;;;;;;24.73;37.62;97476.44;5074725;28;20177;-66
2022/06/17 09:34:55;;;;;;;214.68;204.27;;;;;;;24.42;38.42;97486.16;5074377;28;20271;-66
2022/06/17 09:37:58;;;;;;;189.43;180.00;;;;;;;24.75;38.11;97486.84;5074824;28;20185;-67
2022/06/17 09:40:30;;;;;;;190.90;181.52;;;;;;;24.88;37.94;97488.75;5075205;28;20189;-67
2022/06/17 09:43:14;;;;;;;117.05;111.30;;;;;;;24.55;37.36;97485.38;5056550;28;20178;-66
2022/06/17 09:45:58;;;;;;;108.15;102.85;;;;;;;24.67;37.31;97484.88;5074267;28;20231;-67
2022/06/17 09:48:41;;;;;;;129.38;123.07;;;;;;;24.25;37.82;97496.69;5074756;28;20169;-66
2022/06/17 09:51:17;;;;;;;130.48;123.93;;;;;;;23.90;38.64;97492.75;5074646;28;20227;-66
2022/06/17 09:54:00;;;;;;;82.95;78.75;;;;;;;24.21;38.76;97491.13;5074480;28;20204;-66
2022/06/17 09:56:36;;;;;;;96.25;91.35;;;;;;;24.10;38.11;97494.25;5075014;28;20282;-66
2022/06/17 09:59:17;;;;;;;100.82;95.68;;;;;;;23.99;38.11;97490.97;5073887;28;20513;-66
2022/06/17 10:01:43;;;;;;;91.70;86.97;;;;;;;24.85;37.24;97486.66;5074113;28;20177;-66
2022/06/17 10:04:10;;;;;;;277.45;264.40;;;;;;;25.14;35.53;97478.22;5074475;28;20238;-66
2022/06/17 10:06:45;;;;;;;213.30;202.93;;;;;;;25.06;34.89;97489.69;5074171;28;20251;-65
2022/06/17 10:09:46;;;;;;;229.90;218.98;;;;;;;24.27;35.64;97475.75;5054336;28;20279;-66
2022/06/17 10:12:42;;;;;;;429.15;408.58;;;;;;;24.33;35.77;97472.69;5013004;28;20693;-66
2022/06/17 10:15:19;;;;;;;196.25;187.00;;;;;;;24.33;34.43;97464.66;5073655;28;20209;-66
2022/06/17 10:20:55;;;;;;;179.65;171.02;;;;;;;25.13;34.69;97468.63;5065593;28;20242;-66
2022/06/17 10:23:58;;;;;;;212.38;202.30;;;;;;;24.55;35.84;97468.50;5074155;28;20200;-66
2022/06/17 10:26:37;;;;;;;180.77;172.07;;;;;;;24.61;34.83;97468.09;5073733;28;20173;-66
2022/06/17 10:29:11;;;;;;;165.27;157.02;;;;;;;24.69;34.73;97466.56;5073847;28;20532;-66
2022/06/17 10:31:40;;;;;;;171.65;163.48;;;;;;;25.12;35.20;97469.72;5073975;28;20180;-66
2022/06/17 10:34:24;;;;;;;153.65;146.23;;;;;;;24.48;36.28;97465.41;5073662;28;20180;-66
2022/06/17 10:36:54;;;;;;;147.73;140.55;;;;;;;24.83;35.37;97464.69;5073970;28;20185;-65
2022/06/17 10:39:22;;;;;;;122.78;116.90;;;;;;;25.31;33.74;97459.56;5073328;28;20909;-65
2022/06/17 10:41:48;;;;;;;103.85;98.70;;;;;;;25.41;32.88;97450.50;5073362;28;20177;-65
2022/06/17 10:44:16;;;;;;;116.50;110.65;;;;;;;25.29;32.84;97451.06;5073065;28;20181;-65
2022/06/17 10:46:47;;;;;;;91.82;87.22;;;;;;;25.57;32.80;97455.22;5072097;28;20193;-65
2022/06/17 10:49:18;;;;;;;90.65;86.05;;;;;;;25.64;32.69;97452.09;5073228;28;20185;-65
2022/06/17 10:51:47;;;;;;;81.50;77.25;;;;;;;25.59;32.25;97457.59;5072985;28;20173;-66
2022/06/17 10:54:21;;;;;;;81.05;76.85;;;;;;;25.61;32.46;97456.19;5072578;28;20272;-66
2022/06/17 10:57:06;;;;;;;78.90;75.00;;;;;;;25.71;32.74;97459.72;5070807;28;20186;-66
2022/06/17 10:59:41;;;;;;;85.70;81.35;;;;;;;25.80;32.32;97461.34;5072800;28;20587;-66
2022/06/17 11:02:24;;;;;;;150.30;143.00;;;;;;;25.77;30.54;97458.50;5073192;28;20282;-66
2022/06/17 11:04:55;;;;;;;255.93;243.60;;;;;;;25.74;31.22;97448.38;5071637;28;20209;-66
2022/06/17 11:07:37;;;;;;;248.77;236.70;;;;;;;25.74;32.28;97445.69;5070547;28;20189;-66
2022/06/17 11:10:05;;;;;;;129.00;122.72;;;;;;;25.60;32.97;97446.56;5073287;28;20264;-65
2022/06/17 11:12:36;;;;;;;46.38;43.90;;;;;;;25.33;34.54;97451.22;5072968;28;20246;-65
2022/06/17 11:15:16;;;;;;;60.13;56.88;;;;;;;25.97;33.75;97452.59;5072594;28;20197;-66
2022/06/17 11:17:46;;;;;;;59.70;56.60;;;;;;;26.16;32.90;97447.75;5053112;28;20858;-66
2022/06/17 11:20:25;;;;;;;108.25;102.95;;;;;;;26.22;32.31;97451.91;5069532;28;20189;-66
2022/06/17 11:22:50;;;;;;;51.53;48.67;;;;;;;25.87;33.85;97450.16;5054701;28;20586;-66
2022/06/17 11:25:27;;;;;;;47.88;45.13;;;;;;;25.77;34.23;97447.75;5072119;28;20177;-66
2022/06/17 11:28:07;;;;;;;83.55;79.28;;;;;;;25.39;34.04;97441.97;5068846;28;20197;-66
2022/06/17 11:30:37;;;;;;;85.78;81.32;;;;;;;25.11;35.48;97457.38;5072721;28;20177;-65
2022/06/17 11:33:20;;;;;;;97.95;93.10;;;;;;;24.60;36.99;97455.00;5073016;28;20185;-65
2022/06/17 11:35:45;;;;;;;31.55;29.60;;;;;;;24.95;37.10;97446.22;5072117;28;20533;-65